Downstream station:
SHEF ID: NFSM7 N Fork Spring River nr Purcell, MO
STATION TYPE:
STAGE RIV-FLOW
ft cfs
Ccp-Rev Ccp-Rev
(US/Central)
03/24 00:00 9.84 2789
03/24 01:00 9.68 2699
03/24 02:00 9.52 2610
03/24 03:00 ---- ----
03/24 04:00 9.20 2436
03/24 05:00 9.02 2340
03/24 06:00 8.84 2245
03/24 07:00 8.66 2152
03/24 08:00 8.50 2071
03/24 09:00 8.31 1976
03/24 10:00 8.15 1897
03/24 11:00 7.97 1810
03/24 12:00 7.83 1743
03/24 13:00 7.67 1668
03/24 14:00 7.53 1604
03/24 15:00 7.41 1549
03/24 16:00 7.28 1491
03/24 17:00 7.17 1442
03/24 18:00 7.06 1394
03/24 19:00 6.95 1346
03/24 20:00 6.87 1310
03/24 21:00 6.79 1275
03/24 22:00 6.71 1240
03/24 23:00 6.64 1210